Taiseimaru — JL6483 — position and weather

sailwx.info

Track history (hours):
 
Tides and Currents Weather Stations Pressure Air Temp Water Temp Dewpoint Dewpoint Depression Visibility Wind Speed Wind Dir Waves Ship Positions

Taiseimaru

Last reported at 2017-Aug-12 19:24 UTC. Time now 2017-Aug-18 20:09 UTC.
Position N 34°51' E 139°40'.

Length 84 m; draft 4.7 m.

Type: Cargo ship. MMSI: 431500568.

Date/timePositionNaut miles runAvg speedWind from/ knotsBaromVisibWave heightAir tempDewpointWater temp
2017-Aug-12 19:24N 34°51' E 139°40'511.2
2017-Aug-12 18:55N 34°51' E 139°33'511.1
2017-Aug-12 18:28N 34°50' E 139°27'22510.0
2017-Aug-11 19:58N 33°59' E 135°02'612.1
2017-Aug-11 19:28N 34°05' E 135°03'511.5
2017-Aug-11 19:00N 34°10' E 135°04'4 8.7
2017-Aug-11 18:30N 34°14' E 135°07'0 0.7
2017-Aug-11 18:00N 34°15' E 135°07'0 0.0
2017-Aug-11 17:29N 34°15' E 135°07'0 0.0
2017-Aug-11 16:59N 34°15' E 135°07'0 0.0
2017-Aug-11 16:29N 34°15' E 135°07'0 0.0
2017-Aug-11 15:59N 34°15' E 135°07'0 0.0
2017-Aug-11 15:26N 34°15' E 135°07'0 0.0
2017-Aug-11 14:59N 34°15' E 135°07'0 0.0
2017-Aug-11 14:26N 34°15' E 135°07'0 0.0
2017-Aug-11 13:29N 34°15' E 135°07'0 0.0
2017-Aug-11 12:59N 34°15' E 135°07'0 0.0
2017-Aug-11 12:29N 34°15' E 135°07'0 0.0
2017-Aug-11 11:59N 34°15' E 135°07'0 0.0
2017-Aug-11 11:26N 34°15' E 135°07'0 0.0
2017-Aug-11 10:59N 34°15' E 135°07'0 0.0
2017-Aug-11 10:29N 34°15' E 135°07'0 0.0
2017-Aug-11 09:59N 34°15' E 135°07'0 0.1
2017-Aug-11 09:30N 34°15' E 135°07'0 1.0
2017-Aug-11 09:01N 34°14' E 135°07'1 1.8
2017-Aug-11 08:30N 34°15' E 135°06'4 7.8
2017-Aug-11 08:01N 34°11' E 135°07'1 2.6
2017-Aug-11 07:30N 34°10' E 135°09'0 0.1
2017-Aug-11 06:57N 34°10' E 135°09'0 0.0
2017-Aug-11 06:27N 34°10' E 135°09'0 0.0
2017-Aug-11 05:57N 34°10' E 135°09'0 0.0
2017-Aug-11 05:30N 34°10' E 135°09'0 0.0
2017-Aug-11 04:51N 34°10' E 135°09'0 0.0
2017-Aug-11 04:30N 34°10' E 135°09'0 0.0
2017-Aug-11 03:57N 34°10' E 135°09'0 0.0
2017-Aug-11 03:27N 34°10' E 135°09'0 0.0
2017-Aug-11 03:00N 34°10' E 135°09'0 0.0
2017-Aug-11 02:27N 34°10' E 135°09'0 0.2
2017-Aug-11 01:51N 34°10' E 135°08'0 0.0
2017-Aug-11 01:30N 34°10' E 135°08'0 0.0
2017-Aug-11 00:51N 34°10' E 135°08'0 0.0
2017-Aug-11 00:30N 34°10' E 135°08'0 0.1
2017-Aug-10 23:48N 34°10' E 135°08'0 0.0
2017-Aug-10 23:30N 34°10' E 135°08'0 0.1
2017-Aug-10 23:00N 34°10' E 135°08'0 0.1
2017-Aug-10 22:30N 34°10' E 135°08'0 0.1
2017-Aug-10 21:57N 34°10' E 135°08'0 0.0
2017-Aug-10 21:27N 34°10' E 135°08'0 0.0
2017-Aug-10 20:51N 34°10' E 135°08'0 0.0
2017-Aug-10 20:30N 34°10' E 135°08'0 0.0
2017-Aug-10 19:57N 34°10' E 135°08'0 0.0
2017-Aug-10 19:27N 34°10' E 135°08'0 0.0
2017-Aug-10 19:00N 34°10' E 135°08'0 0.1
2017-Aug-10 17:56N 34°10' E 135°08'0 0.1
2017-Aug-10 17:29N 34°10' E 135°08'1 1.5
2017-Aug-10 17:00N 34°10' E 135°08'510.0
2017-Aug-10 16:30N 34°06' E 135°03'225 8.4
2017-Aug-09 13:39N 34°50' E 139°31'211.9
2017-Aug-09 13:28N 34°50' E 139°34'511.9
2017-Aug-09 13:00N 34°51' E 139°41'  
2017-Aug-06 00:54N 34°51' E 139°48'910.8
2017-Aug-06 00:06N 34°50' E 139°38'510.7
2017-Aug-05 23:39N 34°50' E 139°32'611.8
2017-Aug-05 23:08N 34°50' E 139°24'221 9.0
2017-Aug-04 22:40N 34°01' E 135°03'210.5
2017-Aug-04 22:30N 34°03' E 135°03'510.1
2017-Aug-04 22:00N 34°08' E 135°05'4 8.1
2017-Aug-04 21:30N 34°10' E 135°09'0 0.2
2017-Aug-04 20:58N 34°10' E 135°09'0 0.0
2017-Aug-04 20:28N 34°10' E 135°09'0 0.0
2017-Aug-04 19:58N 34°10' E 135°09'0 0.1
2017-Aug-04 19:28N 34°10' E 135°09'0 0.0
2017-Aug-04 18:58N 34°10' E 135°09'0 0.0
2017-Aug-04 18:25N 34°10' E 135°09'0 0.0
2017-Aug-04 17:58N 34°10' E 135°09'0 0.0
2017-Aug-04 17:25N 34°10' E 135°09'0 0.0
2017-Aug-04 16:55N 34°10' E 135°09'0 0.0
2017-Aug-04 16:28N 34°10' E 135°09'0 0.0
2017-Aug-04 15:58N 34°10' E 135°09'0 0.1
2017-Aug-04 15:22N 34°10' E 135°09'0 0.1
2017-Aug-04 14:58N 34°10' E 135°09'0 0.0
2017-Aug-04 13:58N 34°10' E 135°09'0 0.1
2017-Aug-04 13:28N 34°10' E 135°09'0 0.1
2017-Aug-04 12:52N 34°10' E 135°09'0 0.0
2017-Aug-04 12:25N 34°10' E 135°09'0 0.0
2017-Aug-04 11:46N 34°10' E 135°09'0 0.0
2017-Aug-04 11:25N 34°10' E 135°09'0 0.0
2017-Aug-04 10:55N 34°10' E 135°09'0 0.1
2017-Aug-04 10:25N 34°10' E 135°09'0 0.0
2017-Aug-04 09:55N 34°10' E 135°09'0 0.0
2017-Aug-04 09:28N 34°10' E 135°09'0 0.1
2017-Aug-04 08:58N 34°10' E 135°09'0 0.0
2017-Aug-04 08:28N 34°10' E 135°09'0 0.0
2017-Aug-04 07:58N 34°10' E 135°09'0 0.0
2017-Aug-04 07:28N 34°10' E 135°09'0 0.0
2017-Aug-04 06:58N 34°10' E 135°09'0 0.0
2017-Aug-04 06:28N 34°10' E 135°09'0 0.0
2017-Aug-04 05:58N 34°10' E 135°09'0 0.0
2017-Aug-04 05:28N 34°10' E 135°09'0 0.0
2017-Aug-04 04:55N 34°10' E 135°09'0 0.1
2017-Aug-04 04:28N 34°10' E 135°09'0 0.0
2017-Aug-04 03:49N 34°10' E 135°09'0 0.0
2017-Aug-04 03:25N 34°10' E 135°09'0 0.0
2017-Aug-04 02:58N 34°10' E 135°09'0 0.0
2017-Aug-04 01:25N 34°10' E 135°09'0 0.0
2017-Aug-04 00:58N 34°10' E 135°09'0 0.0
2017-Aug-04 00:28N 34°10' E 135°09'0 0.0
2017-Aug-03 23:49N 34°10' E 135°09'0 0.2
2017-Aug-03 23:28N 34°10' E 135°09'0 0.0
2017-Aug-03 23:00N 34°10' E 135°09'0 0.0
2017-Aug-03 22:27N 34°10' E 135°09'0 0.1
2017-Aug-03 21:54N 34°10' E 135°09'0 0.0
2017-Aug-03 21:30N 34°10' E 135°09'0 0.0
2017-Aug-03 21:00N 34°10' E 135°09'0 0.0
2017-Aug-03 20:27N 34°10' E 135°09'0 0.0
2017-Aug-03 20:00N 34°10' E 135°09'0 0.0
2017-Aug-03 19:30N 34°10' E 135°09'0 0.0
2017-Aug-03 18:57N 34°10' E 135°09'0 0.0
2017-Aug-03 18:30N 34°10' E 135°09'0 0.0
2017-Aug-03 17:54N 34°10' E 135°09'0 0.0
2017-Aug-03 17:30N 34°10' E 135°09'0 0.0
2017-Aug-03 17:00N 34°10' E 135°09'0 0.0
2017-Aug-03 16:21N 34°10' E 135°09'0 0.0
2017-Aug-03 15:57N 34°10' E 135°09'0 0.0
2017-Aug-03 15:30N 34°10' E 135°09'0 0.0
2017-Aug-03 15:00N 34°10' E 135°09'0 0.0
2017-Aug-03 14:00N 34°10' E 135°09'0 0.0
2017-Aug-03 13:30N 34°10' E 135°09'0 0.0
2017-Aug-03 12:54N 34°10' E 135°09'0 0.1
2017-Aug-03 12:30N 34°10' E 135°09'0 0.1
2017-Aug-03 11:57N 34°10' E 135°09'0 0.1
2017-Aug-03 11:30N 34°10' E 135°09'0 0.0
2017-Aug-03 10:54N 34°10' E 135°09'0 0.0
2017-Aug-03 10:24N 34°10' E 135°09'0 0.0
2017-Aug-03 10:00N 34°10' E 135°09'0 0.0
2017-Aug-03 09:30N 34°10' E 135°09'0 0.0
2017-Aug-03 09:00N 34°10' E 135°09'0 0.0
2017-Aug-03 08:30N 34°10' E 135°09'0 0.0
2017-Aug-03 08:00N 34°10' E 135°09'0 0.0
2017-Aug-03 07:30N 34°10' E 135°09'0 0.0
2017-Aug-03 06:54N 34°10' E 135°09'0 0.0
2017-Aug-03 06:30N 34°10' E 135°09'0 0.0
2017-Aug-03 05:57N 34°10' E 135°09'0 0.1
2017-Aug-03 05:30N 34°10' E 135°09'0 0.0
2017-Aug-03 05:00N 34°10' E 135°09'0 0.0
2017-Aug-03 04:30N 34°10' E 135°09'0 0.0
2017-Aug-03 04:00N 34°10' E 135°09'0 0.0
2017-Aug-03 03:30N 34°10' E 135°09'0 0.1
2017-Aug-03 03:00N 34°10' E 135°09'0 0.1
2017-Aug-03 02:30N 34°10' E 135°09'0 0.0
2017-Aug-03 02:00N 34°10' E 135°09'0 0.1
2017-Aug-03 01:30N 34°10' E 135°09'0 0.1
2017-Aug-03 01:00N 34°10' E 135°09'0 0.0
2017-Aug-03 00:30N 34°10' E 135°09'0 0.1
2017-Aug-02 23:57N 34°10' E 135°09'0 0.0
2017-Aug-02 23:27N 34°10' E 135°09'0 0.0
2017-Aug-02 23:00N 34°10' E 135°09'0 0.0
2017-Aug-02 22:30N 34°10' E 135°09'0 0.0
2017-Aug-02 21:54N 34°10' E 135°09'0 0.0
2017-Aug-02 21:27N 34°10' E 135°09'0 0.0
2017-Aug-02 21:00N 34°10' E 135°09'0 0.1
2017-Aug-02 20:30N 34°10' E 135°09'0 0.0
2017-Aug-02 20:00N 34°10' E 135°09'0 0.0
2017-Aug-02 19:30N 34°10' E 135°09'  
Track history (hours):
 
Tides and Currents Weather Stations Pressure Air Temp Water Temp Dewpoint Dewpoint Depression Visibility Wind Speed Wind Dir Waves Ship Positions

Taiseimaru

Last reported at 2017-Aug-12 19:24 UTC. Time now 2017-Aug-18 20:09 UTC.
Position N 34°51' E 139°40'.

Length 84 m; draft 4.7 m.

Type: Cargo ship. MMSI: 431500568.

Date/timePositionNaut miles runAvg speedWind from/ knotsBaromVisibWave heightAir tempDewpointWater temp
2017-Aug-12 19:24N 34°51' E 139°40'511.2
2017-Aug-12 18:55N 34°51' E 139°33'511.1
2017-Aug-12 18:28N 34°50' E 139°27'22510.0
2017-Aug-11 19:58N 33°59' E 135°02'612.1
2017-Aug-11 19:28N 34°05' E 135°03'511.5
2017-Aug-11 19:00N 34°10' E 135°04'4 8.7
2017-Aug-11 18:30N 34°14' E 135°07'0 0.7
2017-Aug-11 18:00N 34°15' E 135°07'0 0.0
2017-Aug-11 17:29N 34°15' E 135°07'0 0.0
2017-Aug-11 16:59N 34°15' E 135°07'0 0.0
2017-Aug-11 16:29N 34°15' E 135°07'0 0.0
2017-Aug-11 15:59N 34°15' E 135°07'0 0.0
2017-Aug-11 15:26N 34°15' E 135°07'0 0.0
2017-Aug-11 14:59N 34°15' E 135°07'0 0.0
2017-Aug-11 14:26N 34°15' E 135°07'0 0.0
2017-Aug-11 13:29N 34°15' E 135°07'0 0.0
2017-Aug-11 12:59N 34°15' E 135°07'0 0.0
2017-Aug-11 12:29N 34°15' E 135°07'0 0.0
2017-Aug-11 11:59N 34°15' E 135°07'0 0.0
2017-Aug-11 11:26N 34°15' E 135°07'0 0.0
2017-Aug-11 10:59N 34°15' E 135°07'0 0.0
2017-Aug-11 10:29N 34°15' E 135°07'0 0.0
2017-Aug-11 09:59N 34°15' E 135°07'0 0.1
2017-Aug-11 09:30N 34°15' E 135°07'0 1.0
2017-Aug-11 09:01N 34°14' E 135°07'1 1.8
2017-Aug-11 08:30N 34°15' E 135°06'4 7.8
2017-Aug-11 08:01N 34°11' E 135°07'1 2.6
2017-Aug-11 07:30N 34°10' E 135°09'0 0.1
2017-Aug-11 06:57N 34°10' E 135°09'0 0.0
2017-Aug-11 06:27N 34°10' E 135°09'0 0.0
2017-Aug-11 05:57N 34°10' E 135°09'0 0.0
2017-Aug-11 05:30N 34°10' E 135°09'0 0.0
2017-Aug-11 04:51N 34°10' E 135°09'0 0.0
2017-Aug-11 04:30N 34°10' E 135°09'0 0.0
2017-Aug-11 03:57N 34°10' E 135°09'0 0.0
2017-Aug-11 03:27N 34°10' E 135°09'0 0.0
2017-Aug-11 03:00N 34°10' E 135°09'0 0.0
2017-Aug-11 02:27N 34°10' E 135°09'0 0.2
2017-Aug-11 01:51N 34°10' E 135°08'0 0.0
2017-Aug-11 01:30N 34°10' E 135°08'0 0.0
2017-Aug-11 00:51N 34°10' E 135°08'0 0.0
2017-Aug-11 00:30N 34°10' E 135°08'0 0.1
2017-Aug-10 23:48N 34°10' E 135°08'0 0.0
2017-Aug-10 23:30N 34°10' E 135°08'0 0.1
2017-Aug-10 23:00N 34°10' E 135°08'0 0.1
2017-Aug-10 22:30N 34°10' E 135°08'0 0.1
2017-Aug-10 21:57N 34°10' E 135°08'0 0.0
2017-Aug-10 21:27N 34°10' E 135°08'0 0.0
2017-Aug-10 20:51N 34°10' E 135°08'0 0.0
2017-Aug-10 20:30N 34°10' E 135°08'0 0.0
2017-Aug-10 19:57N 34°10' E 135°08'0 0.0
2017-Aug-10 19:27N 34°10' E 135°08'0 0.0
2017-Aug-10 19:00N 34°10' E 135°08'0 0.1
2017-Aug-10 17:56N 34°10' E 135°08'0 0.1
2017-Aug-10 17:29N 34°10' E 135°08'1 1.5
2017-Aug-10 17:00N 34°10' E 135°08'510.0
2017-Aug-10 16:30N 34°06' E 135°03'225 8.4
2017-Aug-09 13:39N 34°50' E 139°31'211.9
2017-Aug-09 13:28N 34°50' E 139°34'511.9
2017-Aug-09 13:00N 34°51' E 139°41'  
2017-Aug-06 00:54N 34°51' E 139°48'910.8
2017-Aug-06 00:06N 34°50' E 139°38'510.7
2017-Aug-05 23:39N 34°50' E 139°32'611.8
2017-Aug-05 23:08N 34°50' E 139°24'221 9.0
2017-Aug-04 22:40N 34°01' E 135°03'210.5
2017-Aug-04 22:30N 34°03' E 135°03'510.1
2017-Aug-04 22:00N 34°08' E 135°05'4 8.1
2017-Aug-04 21:30N 34°10' E 135°09'0 0.2
2017-Aug-04 20:58N 34°10' E 135°09'0 0.0
2017-Aug-04 20:28N 34°10' E 135°09'0 0.0
2017-Aug-04 19:58N 34°10' E 135°09'0 0.1
2017-Aug-04 19:28N 34°10' E 135°09'0 0.0
2017-Aug-04 18:58N 34°10' E 135°09'0 0.0
2017-Aug-04 18:25N 34°10' E 135°09'0 0.0
2017-Aug-04 17:58N 34°10' E 135°09'0 0.0
2017-Aug-04 17:25N 34°10' E 135°09'0 0.0
2017-Aug-04 16:55N 34°10' E 135°09'0 0.0
2017-Aug-04 16:28N 34°10' E 135°09'0 0.0
2017-Aug-04 15:58N 34°10' E 135°09'0 0.1
2017-Aug-04 15:22N 34°10' E 135°09'0 0.1
2017-Aug-04 14:58N 34°10' E 135°09'0 0.0
2017-Aug-04 13:58N 34°10' E 135°09'0 0.1
2017-Aug-04 13:28N 34°10' E 135°09'0 0.1
2017-Aug-04 12:52N 34°10' E 135°09'0 0.0
2017-Aug-04 12:25N 34°10' E 135°09'0 0.0
2017-Aug-04 11:46N 34°10' E 135°09'0 0.0
2017-Aug-04 11:25N 34°10' E 135°09'0 0.0
2017-Aug-04 10:55N 34°10' E 135°09'0 0.1
2017-Aug-04 10:25N 34°10' E 135°09'0 0.0
2017-Aug-04 09:55N 34°10' E 135°09'0 0.0
2017-Aug-04 09:28N 34°10' E 135°09'0 0.1
2017-Aug-04 08:58N 34°10' E 135°09'0 0.0
2017-Aug-04 08:28N 34°10' E 135°09'0 0.0
2017-Aug-04 07:58N 34°10' E 135°09'0 0.0
2017-Aug-04 07:28N 34°10' E 135°09'0 0.0
2017-Aug-04 06:58N 34°10' E 135°09'0 0.0
2017-Aug-04 06:28N 34°10' E 135°09'0 0.0
2017-Aug-04 05:58N 34°10' E 135°09'0 0.0
2017-Aug-04 05:28N 34°10' E 135°09'0 0.0
2017-Aug-04 04:55N 34°10' E 135°09'0 0.1
2017-Aug-04 04:28N 34°10' E 135°09'0 0.0
2017-Aug-04 03:49N 34°10' E 135°09'0 0.0
2017-Aug-04 03:25N 34°10' E 135°09'0 0.0
2017-Aug-04 02:58N 34°10' E 135°09'0 0.0
2017-Aug-04 01:25N 34°10' E 135°09'0 0.0
2017-Aug-04 00:58N 34°10' E 135°09'0 0.0
2017-Aug-04 00:28N 34°10' E 135°09'0 0.0
2017-Aug-03 23:49N 34°10' E 135°09'0 0.2
2017-Aug-03 23:28N 34°10' E 135°09'0 0.0
2017-Aug-03 23:00N 34°10' E 135°09'0 0.0
2017-Aug-03 22:27N 34°10' E 135°09'0 0.1
2017-Aug-03 21:54N 34°10' E 135°09'0 0.0
2017-Aug-03 21:30N 34°10' E 135°09'0 0.0
2017-Aug-03 21:00N 34°10' E 135°09'0 0.0
2017-Aug-03 20:27N 34°10' E 135°09'0 0.0
2017-Aug-03 20:00N 34°10' E 135°09'0 0.0
2017-Aug-03 19:30N 34°10' E 135°09'0 0.0
2017-Aug-03 18:57N 34°10' E 135°09'0 0.0
2017-Aug-03 18:30N 34°10' E 135°09'0 0.0
2017-Aug-03 17:54N 34°10' E 135°09'0 0.0
2017-Aug-03 17:30N 34°10' E 135°09'0 0.0
2017-Aug-03 17:00N 34°10' E 135°09'0 0.0
2017-Aug-03 16:21N 34°10' E 135°09'0 0.0
2017-Aug-03 15:57N 34°10' E 135°09'0 0.0
2017-Aug-03 15:30N 34°10' E 135°09'0 0.0
2017-Aug-03 15:00N 34°10' E 135°09'0 0.0
2017-Aug-03 14:00N 34°10' E 135°09'0 0.0
2017-Aug-03 13:30N 34°10' E 135°09'0 0.0
2017-Aug-03 12:54N 34°10' E 135°09'0 0.1
2017-Aug-03 12:30N 34°10' E 135°09'0 0.1
2017-Aug-03 11:57N 34°10' E 135°09'0 0.1
2017-Aug-03 11:30N 34°10' E 135°09'0 0.0
2017-Aug-03 10:54N 34°10' E 135°09'0 0.0
2017-Aug-03 10:24N 34°10' E 135°09'0 0.0
2017-Aug-03 10:00N 34°10' E 135°09'0 0.0
2017-Aug-03 09:30N 34°10' E 135°09'0 0.0
2017-Aug-03 09:00N 34°10' E 135°09'0 0.0
2017-Aug-03 08:30N 34°10' E 135°09'0 0.0
2017-Aug-03 08:00N 34°10' E 135°09'0 0.0
2017-Aug-03 07:30N 34°10' E 135°09'0 0.0
2017-Aug-03 06:54N 34°10' E 135°09'0 0.0
2017-Aug-03 06:30N 34°10' E 135°09'0 0.0
2017-Aug-03 05:57N 34°10' E 135°09'0 0.1
2017-Aug-03 05:30N 34°10' E 135°09'0 0.0
2017-Aug-03 05:00N 34°10' E 135°09'0 0.0
2017-Aug-03 04:30N 34°10' E 135°09'0 0.0
2017-Aug-03 04:00N 34°10' E 135°09'0 0.0
2017-Aug-03 03:30N 34°10' E 135°09'0 0.1
2017-Aug-03 03:00N 34°10' E 135°09'0 0.1
2017-Aug-03 02:30N 34°10' E 135°09'0 0.0
2017-Aug-03 02:00N 34°10' E 135°09'0 0.1
2017-Aug-03 01:30N 34°10' E 135°09'0 0.1
2017-Aug-03 01:00N 34°10' E 135°09'0 0.0
2017-Aug-03 00:30N 34°10' E 135°09'0 0.1
2017-Aug-02 23:57N 34°10' E 135°09'0 0.0
2017-Aug-02 23:27N 34°10' E 135°09'0 0.0
2017-Aug-02 23:00N 34°10' E 135°09'0 0.0
2017-Aug-02 22:30N 34°10' E 135°09'0 0.0
2017-Aug-02 21:54N 34°10' E 135°09'0 0.0
2017-Aug-02 21:27N 34°10' E 135°09'0 0.0
2017-Aug-02 21:00N 34°10' E 135°09'0 0.1
2017-Aug-02 20:30N 34°10' E 135°09'0 0.0
2017-Aug-02 20:00N 34°10' E 135°09'0 0.0
2017-Aug-02 19:30N 34°10' E 135°09'  

Dump ship's entire track history